Time;durP1;ratioP1;P1;durP2;ratioP2;P2;SDS_P1;SDS_P2;PMS_P1;PMS_P2;Temp;Humidity;BMP_temperature;BMP_pressure;BME280_temperature;BME280_humidity;BME280_pressure;Samples;Min_cycle;Max_cycle;Signal;HPM_P1;HPM_P2
2022/10/25 00:02:23;;;;;;;;;2.00;0.00;;;;;16.51;71.25;101184.53;5058904;28;45280;-43
2022/10/25 00:04:49;;;;;;;;;2.00;1.00;;;;;16.52;71.97;101192.44;5058985;28;45342;-40
2022/10/25 00:07:14;;;;;;;;;2.00;1.00;;;;;16.52;71.53;101191.56;5059053;28;45390;-43
2022/10/25 00:09:40;;;;;;;;;1.00;1.00;;;;;16.48;71.64;101201.84;5058690;28;45980;-41
2022/10/25 00:12:06;;;;;;;;;1.75;1.00;;;;;16.46;71.80;101198.47;5058684;28;45288;-42
2022/10/25 00:14:32;;;;;;;;;4.00;3.00;;;;;16.46;71.74;101198.47;5058996;28;45307;-49
2022/10/25 00:16:57;;;;;;;;;1.00;1.00;;;;;16.45;71.65;101194.97;5058921;28;45347;-48
2022/10/25 00:19:23;;;;;;;;;1.00;1.00;;;;;16.46;71.51;101193.94;5058711;28;46776;-51
2022/10/25 00:21:48;;;;;;;;;0.33;0.00;;;;;16.43;71.55;101198.81;5058752;28;45209;-42
2022/10/25 00:24:14;;;;;;;;;5.00;1.00;;;;;16.45;71.86;101196.81;5058813;28;45296;-51
2022/10/25 00:26:40;;;;;;;;;5.00;1.00;;;;;16.40;71.70;101194.66;5058618;28;45465;-41
2022/10/25 00:29:08;;;;;;;;;4.00;1.00;;;;;16.42;71.98;101192.63;5057773;28;46246;-48
2022/10/25 00:31:33;;;;;;;;;3.00;0.00;;;;;16.41;71.92;101199.00;5058536;28;45432;-51
2022/10/25 00:33:59;;;;;;;;;1.00;0.33;;;;;16.39;71.81;101194.81;5058527;28;45477;-45
2022/10/25 00:36:25;;;;;;;;;4.00;1.67;;;;;16.39;71.90;101194.81;5058764;28;45288;-48
2022/10/25 00:38:52;;;;;;;;;1.33;1.00;;;;;16.37;72.28;101192.31;5058363;28;46966;-49
2022/10/25 00:41:20;;;;;;;;;3.00;2.67;;;;;16.38;72.06;101195.81;5058211;28;45338;-43
2022/10/25 00:43:49;;;;;;;;;2.00;1.00;;;;;16.27;72.09;101177.44;5058229;28;45309;-46
2022/10/25 00:46:17;;;;;;;;;0.33;0.00;;;;;16.38;72.33;101202.03;5058426;28;45513;-44
2022/10/25 00:48:47;;;;;;;;;2.00;0.33;;;;;16.39;72.25;101200.19;5058105;28;46164;-49
2022/10/25 00:51:13;;;;;;;;;3.00;2.00;;;;;16.38;72.13;101195.81;5058174;28;45454;-48
2022/10/25 00:53:38;;;;;;;;;3.00;1.00;;;;;16.38;72.20;101206.56;5056939;28;45280;-49
2022/10/25 00:56:11;;;;;;;;;3.67;0.67;;;;;16.37;71.87;101212.97;5058521;28;45276;-50
2022/10/25 00:58:38;;;;;;;;;1.00;1.00;;;;;16.33;72.44;101203.56;5058028;28;45422;-44
2022/10/25 01:01:07;;;;;;;;;2.33;0.00;;;;;16.30;72.34;101209.28;5057964;28;45311;-47
2022/10/25 01:03:35;;;;;;;;;3.00;1.00;;;;;16.31;72.32;101211.81;5058061;28;45433;-50
2022/10/25 01:06:04;;;;;;;;;1.00;1.00;;;;;16.27;71.73;101210.47;5058461;28;45304;-49
2022/10/25 01:08:30;;;;;;;;;1.00;1.00;;;;;16.24;72.19;101209.97;5057805;28;46266;-50
2022/10/25 01:10:55;;;;;;;;;3.00;0.00;;;;;16.23;72.21;101214.53;5058039;28;45374;-49
2022/10/25 01:13:21;;;;;;;;;2.00;1.67;;;;;16.20;72.81;101213.00;5058023;28;45391;-48
2022/10/25 01:15:55;;;;;;;;;1.00;1.00;;;;;16.17;72.34;101215.19;5057905;28;45324;-50
2022/10/25 01:18:45;;;;;;;;;4.33;1.00;;;;;16.17;72.80;101220.56;5057719;28;46153;-50
2022/10/25 01:21:13;;;;;;;;;4.33;1.00;;;;;16.15;72.89;101214.53;5057451;28;45340;-51
2022/10/25 01:24:08;;;;;;;;;1.00;1.00;;;;;16.15;72.99;101223.44;5057874;28;45310;-49
2022/10/25 01:26:52;;;;;;;;;2.67;1.33;;;;;16.15;73.00;101222.59;5057971;28;45347;-45
2022/10/25 01:29:50;;;;;;;;;3.00;1.00;;;;;16.14;73.14;101219.06;5057576;28;46373;-46
2022/10/25 01:32:28;;;;;;;;;0.00;0.00;;;;;16.16;72.81;101214.34;5057636;28;45336;-44
2022/10/25 01:35:04;;;;;;;;;3.00;2.00;;;;;16.16;73.05;101217.03;5057542;28;45482;-44
2022/10/25 01:37:54;;;;;;;;;1.00;1.00;;;;;16.15;73.07;101210.00;5057636;28;45192;-43
2022/10/25 01:40:33;;;;;;;;;4.33;1.33;;;;;16.10;72.78;101208.84;5055949;28;46190;-41
2022/10/25 01:43:28;;;;;;;;;1.00;1.00;;;;;16.09;72.57;101213.34;5057281;28;45280;-52
2022/10/25 01:45:58;;;;;;;;;0.33;0.33;;;;;16.03;73.23;101213.22;5057483;28;45441;-43
2022/10/25 01:48:32;;;;;;;;;1.00;1.00;;;;;15.94;73.21;101207.03;5057365;28;45509;-44
2022/10/25 01:51:07;;;;;;;;;3.33;2.00;;;;;15.91;72.88;101207.38;5057181;28;47142;-44
2022/10/25 01:53:32;;;;;;;;;1.33;1.33;;;;;15.90;73.59;101211.91;5057149;28;45304;-43
2022/10/25 01:56:01;;;;;;;;;1.00;1.00;;;;;15.88;73.86;101213.06;5057460;28;45467;-45
2022/10/25 01:59:02;;;;;;;;;4.33;0.33;;;;;15.84;73.64;101211.72;5056104;28;45526;-42
2022/10/25 02:01:55;;;;;;;;;3.67;0.67;;;;;15.84;73.69;101209.03;5055730;28;46220;-45
2022/10/25 02:04:39;;;;;;;;;0.00;0.00;;;;;15.82;73.94;101213.75;5057071;28;45154;-45
2022/10/25 02:07:12;;;;;;;;;3.67;1.00;;;;;15.78;74.10;101205.22;5057171;28;45319;-49
2022/10/25 02:09:51;;;;;;;;;5.00;2.00;;;;;15.77;73.98;101213.44;5057334;28;45443;-48
2022/10/25 02:12:26;;;;;;;;;2.00;2.00;;;;;15.75;74.13;101210.06;5056827;28;47303;-51
2022/10/25 02:15:18;;;;;;;;;2.33;1.67;;;;;15.71;73.80;101207.72;5056721;28;45440;-52
2022/10/25 02:17:51;;;;;;;;;0.67;0.67;;;;;15.64;74.32;101201.38;5034454;28;45259;-46
2022/10/25 02:20:20;;;;;;;;;2.00;0.00;;;;;15.62;74.58;101194.44;5034757;28;45427;-52
2022/10/25 02:22:47;;;;;;;;;1.67;1.00;;;;;15.69;74.00;101212.41;5034541;28;45373;-52
2022/10/25 02:25:13;;;;;;;;;4.67;0.67;;;;;15.60;74.53;101199.16;5034530;28;45509;-51
2022/10/25 02:27:39;;;;;;;;;1.00;1.00;;;;;15.67;74.63;101217.13;5034599;28;45393;-48
2022/10/25 02:30:06;;;;;;;;;3.00;0.33;;;;;15.68;74.72;101220.66;5034647;28;45477;-47
2022/10/25 02:32:32;;;;;;;;;4.00;1.00;;;;;15.68;74.52;101218.81;5034525;28;46010;-50
2022/10/25 02:34:57;;;;;;;;;1.67;1.33;;;;;15.69;74.74;101225.84;5034317;28;45328;-44
2022/10/25 02:37:23;;;;;;;;;5.00;1.00;;;;;15.69;74.63;101230.38;5034535;28;45504;-50
2022/10/25 02:39:50;;;;;;;;;2.00;1.00;;;;;15.67;74.33;101229.69;5034916;28;45441;-51
2022/10/25 02:42:15;;;;;;;;;3.67;1.33;;;;;15.67;74.58;101235.03;5034284;28;47283;-47
2022/10/25 02:44:40;;;;;;;;;1.00;1.00;;;;;15.66;74.67;101228.84;5033595;28;45444;-50
2022/10/25 02:47:06;;;;;;;;;5.67;2.00;;;;;15.67;74.67;101227.84;5034370;28;45435;-48
2022/10/25 02:49:31;;;;;;;;;0.67;0.67;;;;;15.68;74.82;101232.22;5034476;28;45263;-49
2022/10/25 02:51:56;;;;;;;;;4.00;2.00;;;;;15.63;74.67;101226.50;5036367;28;45502;-48
2022/10/25 02:54:22;;;;;;;;;2.00;1.00;;;;;15.66;75.07;101228.00;5044654;28;45483;-50
2022/10/25 02:56:51;;;;;;;;;2.00;2.00;;;;;15.63;75.11;101223.81;5060072;28;45406;-47
2022/10/25 02:59:18;;;;;;;;;2.00;1.00;;;;;15.64;74.41;101224.63;5060144;28;45418;-46
2022/10/25 03:01:43;;;;;;;;;3.00;1.00;;;;;15.62;75.15;101223.94;5059945;28;45330;-51
2022/10/25 03:04:08;;;;;;;;;3.67;1.00;;;;;15.65;74.77;101224.50;5059713;28;45195;-51
2022/10/25 03:06:34;;;;;;;;;3.33;2.00;;;;;15.68;75.47;101223.34;5060589;28;45343;-51
2022/10/25 03:08:59;;;;;;;;;3.33;2.00;;;;;15.68;74.83;101223.34;5060269;28;45220;-44
2022/10/25 03:11:24;;;;;;;;;1.00;1.00;;;;;15.69;74.96;101227.69;5059742;28;45285;-42
2022/10/25 03:13:50;;;;;;;;;1.00;1.00;;;;;15.67;75.15;101224.31;5059731;28;45319;-47
2022/10/25 03:16:15;;;;;;;;;2.33;1.33;;;;;15.74;75.15;101229.84;5059773;28;45298;-43
2022/10/25 03:18:40;;;;;;;;;3.33;1.33;;;;;15.70;74.84;101222.13;5059838;28;45310;-52
2022/10/25 03:21:06;;;;;;;;;1.67;1.67;;;;;15.79;74.98;101230.19;5059527;28;46039;-47
2022/10/25 03:23:33;;;;;;;;;1.67;1.33;;;;;15.82;75.43;101227.16;5059489;28;45220;-53
2022/10/25 03:25:59;;;;;;;;;1.33;1.33;;;;;15.74;74.43;101216.44;5058520;28;45442;-49
2022/10/25 03:28:26;;;;;;;;;4.00;2.33;;;;;15.85;74.65;101230.34;5059609;28;45353;-51
2022/10/25 03:30:52;;;;;;;;;5.33;2.33;;;;;15.80;74.71;101226.47;5059311;28;47075;-39
2022/10/25 03:33:17;;;;;;;;;2.00;2.00;;;;;15.83;74.46;101228.84;5059521;28;45240;-43
2022/10/25 03:35:42;;;;;;;;;1.33;1.00;;;;;15.85;74.34;101241.09;5059687;28;45407;-47
2022/10/25 03:38:08;;;;;;;;;2.33;0.67;;;;;15.87;74.50;101248.97;5059752;28;45472;-48
2022/10/25 03:40:33;;;;;;;;;3.33;1.00;;;;;15.79;74.50;101239.06;5059245;28;47116;-48
2022/10/25 03:42:58;;;;;;;;;2.00;0.00;;;;;15.85;74.54;101248.31;5059362;28;45382;-47
2022/10/25 03:45:24;;;;;;;;;4.33;3.00;;;;;15.83;74.22;101244.94;5059009;28;45461;-43
2022/10/25 03:47:50;;;;;;;;;1.67;1.00;;;;;15.81;74.80;101249.66;5059373;28;45270;-50
2022/10/25 03:50:16;;;;;;;;;2.33;1.00;;;;;15.82;74.86;101256.69;5059126;28;45343;-48
2022/10/25 03:52:41;;;;;;;;;3.33;3.33;;;;;15.79;75.08;101247.09;5059101;28;45206;-46
2022/10/25 03:55:07;;;;;;;;;1.67;1.67;;;;;15.78;75.05;101256.16;5059181;28;45220;-48
2022/10/25 03:57:34;;;;;;;;;3.33;2.67;;;;;15.79;75.11;101257.00;5059289;28;45272;-47
2022/10/25 03:59:59;;;;;;;;;3.00;1.00;;;;;15.81;74.44;101260.38;5058764;28;45559;-49
2022/10/25 04:02:26;;;;;;;;;4.33;3.33;;;;;15.80;75.06;101262.22;5057887;28;45443;-47
2022/10/25 04:04:52;;;;;;;;;5.33;4.00;;;;;15.79;74.89;101254.31;5059141;28;45394;-45
2022/10/25 04:07:18;;;;;;;;;4.67;1.67;;;;;15.79;75.29;101257.84;5059076;28;45247;-48
2022/10/25 04:09:44;;;;;;;;;4.00;3.00;;;;;15.81;75.23;101252.31;5058572;28;45288;-49
2022/10/25 04:12:09;;;;;;;;;4.67;3.00;;;;;15.82;75.11;101257.50;5058615;28;45374;-51
2022/10/25 04:14:35;;;;;;;;;3.33;2.00;;;;;15.82;74.89;101254.84;5058869;28;45306;-50
2022/10/25 04:17:00;;;;;;;;;1.67;1.00;;;;;15.81;74.93;101252.31;5059004;28;45342;-45
2022/10/25 04:19:25;;;;;;;;;3.67;3.00;;;;;15.80;74.60;101256.00;5058830;28;45266;-51
2022/10/25 04:21:51;;;;;;;;;4.00;2.00;;;;;15.75;75.09;101255.66;5058750;28;45347;-52
2022/10/25 04:24:16;;;;;;;;;5.67;3.00;;;;;15.77;75.35;101256.34;5058744;28;45229;-51
2022/10/25 04:26:42;;;;;;;;;2.67;2.00;;;;;15.77;75.13;101246.47;5058926;28;45324;-49
2022/10/25 04:29:09;;;;;;;;;1.67;1.67;;;;;15.74;75.83;101246.78;5058198;28;47321;-52
2022/10/25 04:31:35;;;;;;;;;6.33;2.67;;;;;15.80;75.28;101254.19;5058488;28;45422;-44
2022/10/25 04:34:00;;;;;;;;;3.00;2.67;;;;;15.80;75.26;101258.69;5058609;28;45303;-47
2022/10/25 04:36:28;;;;;;;;;4.00;2.00;;;;;15.80;75.30;101269.41;5058796;28;45844;-45
2022/10/25 04:38:53;;;;;;;;;7.00;2.00;;;;;15.73;75.51;101250.47;5058184;28;47014;-52
2022/10/25 04:41:20;;;;;;;;;5.67;2.67;;;;;15.78;74.80;101266.91;5058181;28;45213;-53
2022/10/25 04:43:45;;;;;;;;;3.00;3.00;;;;;15.73;75.73;101263.06;5058134;28;45232;-53
2022/10/25 04:46:11;;;;;;;;;5.33;4.00;;;;;15.68;75.79;101266.25;5058548;28;45439;-53
2022/10/25 04:48:38;;;;;;;;;3.00;2.00;;;;;15.67;75.77;101260.03;5057795;28;45423;-49
2022/10/25 04:51:03;;;;;;;;;2.33;2.33;;;;;15.69;76.14;101268.75;5058139;28;45372;-51
2022/10/25 04:53:29;;;;;;;;;3.00;3.00;;;;;15.67;75.41;101262.72;5058081;28;45362;-47
2022/10/25 04:55:59;;;;;;;;;5.00;2.33;;;;;15.64;76.06;101271.09;5058386;28;45326;-47
2022/10/25 04:58:25;;;;;;;;;4.67;2.00;;;;;15.61;76.47;101260.66;5058066;28;46152;-48
2022/10/25 05:00:52;;;;;;;;;4.67;2.00;;;;;15.62;76.59;101267.69;5057837;28;45525;-51
2022/10/25 05:03:17;;;;;;;;;3.00;1.00;;;;;15.60;76.65;101269.72;5058352;28;45339;-50
2022/10/25 05:05:42;;;;;;;;;4.00;3.67;;;;;15.62;76.69;101275.75;5058238;28;45396;-52
2022/10/25 05:08:08;;;;;;;;;4.67;3.00;;;;;15.63;76.65;101274.75;5057732;28;46167;-48
2022/10/25 05:10:33;;;;;;;;;4.33;3.67;;;;;15.63;76.85;101272.09;5057879;28;45344;-48
2022/10/25 05:12:58;;;;;;;;;3.33;3.33;;;;;15.58;76.40;101263.66;5057799;28;45365;-42
2022/10/25 05:15:24;;;;;;;;;5.00;5.00;;;;;15.59;77.13;101267.19;5057978;28;45321;-45
2022/10/25 05:17:49;;;;;;;;;6.33;3.33;;;;;15.60;76.47;101272.41;5057600;28;46230;-43
2022/10/25 05:20:14;;;;;;;;;6.00;4.00;;;;;15.57;76.95;101278.09;5057815;28;45316;-51
2022/10/25 05:22:40;;;;;;;;;5.67;4.00;;;;;15.57;77.30;101283.44;5057737;28;45470;-44
2022/10/25 05:25:06;;;;;;;;;7.00;4.33;;;;;15.54;77.06;101272.22;5058051;28;45573;-43
2022/10/25 05:27:35;;;;;;;;;7.33;2.33;;;;;15.53;77.27;101274.06;5057657;28;47295;-43
2022/10/25 05:30:00;;;;;;;;;5.33;4.33;;;;;15.52;76.59;101279.59;5057332;28;45822;-41
2022/10/25 05:32:25;;;;;;;;;3.00;2.00;;;;;15.49;77.24;101283.44;5057640;28;45173;-41
2022/10/25 05:34:51;;;;;;;;;9.00;4.00;;;;;15.46;77.51;101276.59;5057825;28;45414;-40
2022/10/25 05:37:16;;;;;;;;;7.33;4.33;;;;;15.46;77.59;101291.81;5057442;28;46128;-40
2022/10/25 05:39:41;;;;;;;;;5.33;4.33;;;;;15.44;78.03;101281.25;5057649;28;45790;-43
2022/10/25 05:42:07;;;;;;;;;5.33;3.00;;;;;15.44;76.98;101275.06;5057647;28;45292;-42
2022/10/25 05:44:32;;;;;;;;;4.33;2.67;;;;;15.45;77.98;101284.78;5057321;28;45335;-50
2022/10/25 05:46:57;;;;;;;;;4.00;4.00;;;;;15.43;77.41;101286.81;5057383;28;46128;-42
2022/10/25 05:49:23;;;;;;;;;5.00;3.00;;;;;15.42;78.59;101290.47;5057204;28;45313;-44
2022/10/25 05:51:48;;;;;;;;;7.67;4.00;;;;;15.44;78.10;101288.47;5057432;28;45504;-43
2022/10/25 05:54:14;;;;;;;;;7.00;3.00;;;;;15.44;77.71;101283.09;5057508;28;45385;-42
2022/10/25 05:56:41;;;;;;;;;10.00;4.00;;;;;15.40;78.16;101277.22;5056972;28;46184;-44
2022/10/25 05:59:09;;;;;;;;;5.67;4.00;;;;;15.44;78.50;101283.09;5057152;28;45325;-44
2022/10/25 06:01:37;;;;;;;;;5.33;4.00;;;;;15.41;78.24;101272.72;5057101;28;45944;-44
2022/10/25 06:04:03;;;;;;;;;5.67;4.00;;;;;15.35;78.75;101273.38;5057412;28;45321;-45
2022/10/25 06:06:28;;;;;;;;;7.33;3.00;;;;;15.42;78.54;101290.47;5057035;28;45406;-49
2022/10/25 06:08:58;;;;;;;;;5.00;3.00;;;;;15.45;78.55;101290.97;5056943;28;45390;-42
2022/10/25 06:11:25;;;;;;;;;4.33;2.67;;;;;15.47;78.36;101286.31;5057260;28;45314;-42
2022/10/25 06:13:50;;;;;;;;;2.33;2.33;;;;;15.46;78.72;101279.28;5057190;28;45240;-45
2022/10/25 06:16:18;;;;;;;;;15.00;7.50;;;;;15.51;78.43;101288.66;5056704;28;46032;-45
2022/10/25 06:18:44;;;;;;;;;7.00;5.00;;;;;15.49;78.28;101275.41;5057032;28;45330;-43
2022/10/25 06:21:12;;;;;;;;;5.00;3.00;;;;;15.57;78.32;101285.31;5056985;28;45502;-47
2022/10/25 06:23:40;;;;;;;;;4.67;4.67;;;;;15.59;78.29;101294.88;5057160;28;45276;-44
2022/10/25 06:26:12;;;;;;;;;6.33;3.33;;;;;15.61;78.10;101290.16;5058399;28;47179;-48
2022/10/25 06:28:38;;;;;;;;;2.00;2.00;;;;;15.64;77.88;101291.69;5060407;28;45434;-45
2022/10/25 06:31:08;;;;;;;;;6.33;3.67;;;;;15.66;77.90;101293.22;5060565;28;45408;-41
2022/10/25 06:33:34;;;;;;;;;4.00;4.00;;;;;15.64;76.78;101295.22;5060984;28;45343;-46
2022/10/25 06:36:01;;;;;;;;;4.33;2.33;;;;;15.58;77.34;101290.50;5060146;28;46442;-43
2022/10/25 06:38:28;;;;;;;;;5.00;2.00;;;;;15.64;77.71;101299.72;5059050;28;45782;-47
2022/10/25 06:41:01;;;;;;;;;4.00;2.00;;;;;15.67;77.61;101308.31;5060480;28;45263;-44
2022/10/25 06:43:27;;;;;;;;;4.00;1.00;;;;;15.69;77.57;101306.28;5060025;28;45430;-44
2022/10/25 06:45:53;;;;;;;;;4.33;2.33;;;;;15.74;77.36;101308.47;5059847;28;46368;-45
2022/10/25 06:48:19;;;;;;;;;1.33;1.33;;;;;15.76;77.16;101310.97;5060032;28;45712;-46
2022/10/25 06:50:44;;;;;;;;;3.67;1.00;;;;;15.77;77.10;101299.28;5059080;28;45469;-48
2022/10/25 06:53:10;;;;;;;;;1.33;1.33;;;;;15.67;76.72;101289.56;5060630;28;45447;-47
2022/10/25 06:55:35;;;;;;;;;4.33;3.00;;;;;15.70;76.65;101293.72;5059872;28;46131;-48
2022/10/25 06:58:01;;;;;;;;;2.33;2.33;;;;;15.79;76.59;101310.66;5060276;28;45456;-47
2022/10/25 07:00:26;;;;;;;;;1.00;1.00;;;;;15.81;76.50;101312.19;5060069;28;45389;-50
2022/10/25 07:02:56;;;;;;;;;4.00;2.00;;;;;15.83;76.48;101309.31;5060342;28;45192;-49
2022/10/25 07:05:22;;;;;;;;;6.67;2.33;;;;;15.82;76.33;101303.13;5059828;28;46202;-50
2022/10/25 07:07:48;;;;;;;;;2.00;2.00;;;;;15.92;76.41;101308.31;5059767;28;45315;-42
2022/10/25 07:10:13;;;;;;;;;3.00;2.33;;;;;15.96;75.97;101325.75;5060091;28;45339;-41
2022/10/25 07:12:39;;;;;;;;;3.00;2.00;;;;;16.00;75.65;101313.69;5060040;28;45245;-43
2022/10/25 07:15:04;;;;;;;;;3.33;3.00;;;;;16.02;75.58;101318.91;5059463;28;46850;-45
2022/10/25 07:17:30;;;;;;;;;6.33;3.00;;;;;16.05;75.26;101318.53;5059652;28;45224;-43
2022/10/25 07:19:56;;;;;;;;;3.67;3.00;;;;;16.07;75.15;101320.06;5059810;28;45646;-43
2022/10/25 07:22:22;;;;;;;;;5.00;3.33;;;;;16.10;74.99;101327.78;5059894;28;45763;-45
2022/10/25 07:24:47;;;;;;;;;2.00;1.00;;;;;16.11;74.56;101326.75;5059481;28;46054;-43
2022/10/25 07:27:13;;;;;;;;;5.00;1.67;;;;;16.14;74.67;101330.97;5059303;28;45307;-45
2022/10/25 07:29:38;;;;;;;;;3.00;2.00;;;;;16.16;74.35;101331.63;5059484;28;45343;-42
2022/10/25 07:32:04;;;;;;;;;2.67;1.00;;;;;16.14;74.34;101331.81;5059553;28;45581;-42
2022/10/25 07:34:29;;;;;;;;;4.00;2.00;;;;;16.15;74.38;101330.78;5059459;28;47164;-46
2022/10/25 07:36:54;;;;;;;;;11.33;3.67;;;;;16.18;74.36;101337.66;5059085;28;45394;-51
2022/10/25 07:39:20;;;;;;;;;7.33;2.67;;;;;16.11;74.57;101326.75;5059532;28;45439;-49
2022/10/25 07:41:45;;;;;;;;;4.67;4.00;;;;;16.18;74.37;101334.97;5059765;28;45245;-47
2022/10/25 07:44:10;;;;;;;;;8.00;5.00;;;;;16.17;74.35;101344.03;5059118;28;45427;-50
2022/10/25 07:46:36;;;;;;;;;6.33;4.67;;;;;16.16;74.44;101335.13;5059126;28;45345;-48
2022/10/25 07:49:01;;;;;;;;;2.00;2.00;;;;;16.13;74.55;101327.41;5058686;28;45296;-44
2022/10/25 07:51:27;;;;;;;;;5.67;3.00;;;;;16.20;74.38;101338.34;5059141;28;45339;-48
2022/10/25 07:53:52;;;;;;;;;9.00;4.67;;;;;16.22;74.15;101347.03;5059173;28;45311;-45
2022/10/25 07:56:18;;;;;;;;;5.00;3.33;;;;;16.17;74.70;101325.25;5059057;28;45486;-48
2022/10/25 07:58:44;;;;;;;;;4.33;2.67;;;;;16.27;74.02;101339.34;5057894;28;45327;-49
2022/10/25 08:01:10;;;;;;;;;3.00;3.00;;;;;16.26;74.08;101345.69;5058690;28;45235;-49
2022/10/25 08:03:36;;;;;;;;;5.33;4.00;;;;;16.31;73.91;101340.69;5058889;28;47166;-48
2022/10/25 08:06:02;;;;;;;;;5.00;4.00;;;;;16.31;73.89;101346.06;5059044;28;45310;-48
2022/10/25 08:08:28;;;;;;;;;5.33;4.00;;;;;16.35;74.11;101342.03;5058854;28;45181;-49
2022/10/25 08:10:54;;;;;;;;;6.00;4.33;;;;;16.40;74.17;101350.41;5059228;28;45399;-49
2022/10/25 08:13:19;;;;;;;;;11.00;4.00;;;;;16.43;73.68;101352.75;5058761;28;45462;-44
2022/10/25 08:15:52;;;;;;;;;2.00;2.00;;;;;16.48;73.91;101344.19;5057294;28;46307;-50
2022/10/25 08:18:17;;;;;;;;;8.67;4.33;;;;;16.54;73.84;101331.91;5059217;28;45297;-51
2022/10/25 08:20:43;;;;;;;;;6.67;3.67;;;;;16.63;73.57;101328.19;5059409;28;45343;-48
2022/10/25 08:23:08;;;;;;;;;6.33;5.00;;;;;16.71;73.46;101326.31;5058772;28;45449;-50
2022/10/25 08:25:34;;;;;;;;;6.00;4.00;;;;;16.71;72.70;101314.72;5058729;28;45464;-48
2022/10/25 08:27:59;;;;;;;;;7.00;5.67;;;;;16.85;72.23;101323.94;5058757;28;45331;-50
2022/10/25 08:30:24;;;;;;;;;4.67;3.33;;;;;16.90;71.92;101316.22;5059103;28;45522;-51
2022/10/25 08:32:50;;;;;;;;;4.00;2.00;;;;;16.98;71.83;101331.44;5058573;28;46112;-47
2022/10/25 08:35:16;;;;;;;;;4.00;4.00;;;;;16.90;70.89;101319.75;5058378;28;45503;-48
2022/10/25 08:37:41;;;;;;;;;5.33;4.00;;;;;17.05;71.09;101327.06;5058594;28;45318;-46
2022/10/25 08:40:15;;;;;;;;;9.00;4.00;;;;;17.14;71.09;101334.91;5058661;28;45385;-51
2022/10/25 08:42:56;;;;;;;;;4.33;3.00;;;;;17.21;70.61;101325.13;5058207;28;45970;-47
2022/10/25 08:45:36;;;;;;;;;4.25;2.00;;;;;17.34;69.93;101321.03;5058056;28;45259;-45
2022/10/25 08:48:05;;;;;;;;;3.00;0.00;;;;;17.42;68.34;101321.81;5057875;28;45481;-49
2022/10/25 08:50:45;;;;;;;;;3.50;3.50;;;;;17.51;68.48;101322.63;5058576;28;45465;-47
2022/10/25 08:53:20;;;;;;;;;1.75;1.00;;;;;17.56;67.57;101322.91;5058153;28;46471;-47
2022/10/25 08:55:47;;;;;;;;;2.00;1.75;;;;;17.58;66.86;101320.88;5058220;28;45288;-50
2022/10/25 08:58:35;;;;;;;;;3.00;1.00;;;;;17.65;66.69;101319.13;5058285;28;45329;-53
2022/10/25 09:01:10;;;;;;;;;3.00;0.00;;;;;17.76;66.23;101317.09;5058257;28;45597;-47
2022/10/25 09:03:39;;;;;;;;;3.00;1.00;;;;;17.96;65.94;101329.06;5057833;28;45612;-46
2022/10/25 09:06:33;;;;;;;;;2.00;2.00;;;;;18.26;65.36;101324.56;5057800;28;45376;-49
2022/10/25 09:09:08;;;;;;;;;6.00;1.00;;;;;18.50;64.35;101323.50;5057760;28;45471;-48
2022/10/25 09:11:40;;;;;;;;;2.25;1.50;;;;;18.66;63.41;101326.00;5058349;28;45454;-48
2022/10/25 09:14:16;;;;;;;;;1.00;1.00;;;;;18.84;63.30;101324.84;5057999;28;47168;-48
2022/10/25 09:16:49;;;;;;;;;4.00;1.00;;;;;19.11;64.33;101317.91;5057605;28;45351;-49
2022/10/25 09:19:31;;;;;;;;;1.00;1.00;;;;;19.33;61.78;101305.31;5057910;28;45308;-47
2022/10/25 09:22:03;;;;;;;;;1.25;1.25;;;;;19.63;61.55;101303.38;5058013;28;45402;-50
2022/10/25 09:25:00;;;;;;;;;2.00;2.00;;;;;19.99;60.47;101308.69;5057824;28;45382;-50
2022/10/25 09:27:40;;;;;;;;;1.60;1.00;;;;;20.28;59.41;101298.75;5057743;28;45400;-47
2022/10/25 09:30:10;;;;;;;;;2.75;1.00;;;;;20.57;58.38;101289.63;5057859;28;45397;-45
2022/10/25 09:32:55;;;;;;;;;3.00;1.00;;;;;20.87;57.57;101295.59;5057529;28;45470;-48
2022/10/25 09:35:26;;;;;;;;;1.00;1.00;;;;;21.14;56.29;101296.50;5057468;28;47139;-46
2022/10/25 09:37:56;;;;;;;;;1.40;1.00;;;;;21.35;55.95;101314.50;5057741;28;45280;-50
2022/10/25 09:40:28;;;;;;;;;1.60;0.00;;;;;21.48;55.12;101321.84;5057927;28;45322;-51
2022/10/25 09:43:13;;;;;;;;;3.00;1.00;;;;;21.58;55.93;101301.47;5057825;28;45454;-46
2022/10/25 09:45:55;;;;;;;;;1.00;1.00;;;;;21.67;54.64;101294.81;5057220;28;45458;-48
2022/10/25 09:48:45;;;;;;;;;0.00;0.00;;;;;21.71;55.71;101297.13;5057262;28;45429;-47
2022/10/25 09:51:47;;;;;;;;;1.60;1.00;;;;;21.62;54.35;101301.91;5057616;28;45472;-48
2022/10/25 09:54:21;;;;;;;;;1.60;0.00;;;;;21.72;54.68;101306.91;5057783;28;45555;-51
2022/10/25 09:56:46;;;;;;;;;1.00;1.00;;;;;21.71;53.12;101303.34;5057344;28;46378;-47
2022/10/25 09:59:14;;;;;;;;;1.00;1.00;;;;;21.78;52.80;101303.34;5057444;28;45358;-49
2022/10/25 10:01:40;;;;;;;;;1.00;1.00;;;;;21.74;52.25;101297.50;5056173;28;45429;-46
2022/10/25 10:04:23;;;;;;;;;1.00;1.00;;;;;21.76;53.68;101294.63;5057652;28;45436;-49
2022/10/25 10:06:51;;;;;;;;;3.00;1.80;;;;;21.80;53.07;101295.88;5056959;28;46227;-45
2022/10/25 10:09:17;;;;;;;;;2.20;1.00;;;;;21.81;52.80;101292.09;5057333;28;45349;-47
2022/10/25 10:11:46;;;;;;;;;4.20;1.40;;;;;21.91;53.18;101293.38;5057016;28;45378;-50
2022/10/25 10:14:51;;;;;;;;;1.00;1.00;;;;;21.93;53.53;101282.31;5057380;28;45320;-48
2022/10/25 10:17:18;;;;;;;;;3.20;1.20;;;;;21.91;52.97;101287.97;5014615;28;45305;-50
2022/10/25 10:20:15;;;;;;;;;3.20;1.00;;;;;21.94;54.40;101292.09;5014812;28;45527;-50
2022/10/25 10:22:47;;;;;;;;;1.60;1.00;;;;;21.87;53.18;101288.59;5014766;28;45376;-49
2022/10/25 10:25:21;;;;;;;;;1.00;0.00;;;;;21.97;53.93;101288.16;5015147;28;45453;-47
2022/10/25 10:27:49;;;;;;;;;1.00;0.00;;;;;22.06;52.82;101287.72;5014212;28;45505;-48
2022/10/25 10:30:22;;;;;;;;;4.00;2.00;;;;;22.21;53.09;101281.31;5014554;28;45517;-48
2022/10/25 10:32:54;;;;;;;;;7.20;3.60;;;;;22.33;53.87;101287.72;5014759;28;45320;-49
2022/10/25 10:35:25;;;;;;;;;3.80;2.40;;;;;22.17;52.97;101292.56;5014916;28;45274;-45
2022/10/25 10:37:50;;;;;;;;;5.00;3.40;;;;;22.09;53.40;101300.03;5014385;28;46395;-46
2022/10/25 10:40:18;;;;;;;;;2.00;2.00;;;;;21.97;54.42;101293.59;5014323;28;45335;-47
2022/10/25 10:42:44;;;;;;;;;5.00;3.80;;;;;21.83;54.01;101290.88;5014720;28;45331;-46
2022/10/25 10:45:11;;;;;;;;;3.50;2.00;;;;;21.80;54.07;101287.75;5014456;28;45278;-47
2022/10/25 10:47:55;;;;;;;;;6.60;5.20;;;;;21.68;54.88;101282.09;5014381;28;45608;-49
2022/10/25 10:50:21;;;;;;;;;7.40;4.00;;;;;21.60;55.23;101277.72;5020936;28;45347;-46
2022/10/25 10:52:56;;;;;;;;;7.25;5.75;;;;;21.67;55.14;101278.56;5056199;28;45332;-50
2022/10/25 10:55:30;;;;;;;;;3.80;2.60;;;;;21.67;56.27;101285.84;5056901;28;45383;-49
2022/10/25 10:58:00;;;;;;;;;7.20;5.00;;;;;21.52;54.42;101271.66;5056495;28;46980;-44
2022/10/25 11:00:29;;;;;;;;;3.20;3.20;;;;;21.40;55.50;101264.13;5056371;28;45315;-45
2022/10/25 11:02:54;;;;;;;;;5.00;4.00;;;;;21.37;55.22;101267.28;5056428;28;45432;-47
2022/10/25 11:05:24;;;;;;;;;6.50;6.00;;;;;21.38;54.96;101262.69;5056883;28;45228;-44
2022/10/25 11:07:59;;;;;;;;;2.80;2.80;;;;;21.41;55.23;101257.72;5055751;28;46296;-44
2022/10/25 11:10:26;;;;;;;;;3.40;3.40;;;;;21.45;54.82;101250.00;5056347;28;45454;-47
2022/10/25 11:13:11;;;;;;;;;3.00;3.00;;;;;21.41;55.51;101259.59;5058933;28;45378;-47
2022/10/25 11:16:09;;;;;;;;;4.50;3.75;;;;;21.34;55.13;101248.72;5059919;28;45580;-44
2022/10/25 11:18:47;;;;;;;;;5.00;5.00;;;;;21.31;54.90;101234.75;5059034;28;45413;-44
2022/10/25 11:21:38;;;;;;;;;7.80;5.60;;;;;21.44;54.75;101248.31;5059749;28;45179;-45
2022/10/25 11:24:06;;;;;;;;;5.20;5.20;;;;;21.54;54.84;101245.25;5059743;28;45283;-46
2022/10/25 11:26:43;;;;;;;;;4.50;4.00;;;;;21.72;54.96;101231.06;5059843;28;45252;-46
2022/10/25 11:29:26;;;;;;;;;4.80;3.40;;;;;21.94;55.22;101229.81;5059437;28;46244;-44
2022/10/25 11:32:05;;;;;;;;;5.00;3.40;;;;;22.01;54.48;101230.66;5059604;28;45377;-45
2022/10/25 11:34:50;;;;;;;;;3.20;3.20;;;;;22.10;53.71;101237.50;5059654;28;45347;-42
2022/10/25 11:37:18;;;;;;;;;6.00;4.40;;;;;22.17;53.20;101235.66;5059579;28;45405;-45